sensor_id;sensor_type;location;lat;lon;timestamp;P1;P2;P0
49708;PMS5003;35601;55.902;13.606;2023-09-12T00:01:18;59;52;
49708;PMS5003;35601;55.902;13.606;2023-09-12T00:03:43;45;39;
49708;PMS5003;35601;55.902;13.606;2023-09-12T00:06:09;56;46;
49708;PMS5003;35601;55.902;13.606;2023-09-12T00:08:35;52;44;
49708;PMS5003;35601;55.902;13.606;2023-09-12T00:11:01;50;44;
49708;PMS5003;35601;55.902;13.606;2023-09-12T00:13:26;58;47;
49708;PMS5003;35601;55.902;13.606;2023-09-12T00:15:51;57;53;
49708;PMS5003;35601;55.902;13.606;2023-09-12T00:18:16;49;44;
49708;PMS5003;35601;55.902;13.606;2023-09-12T00:20:41;44;40;
49708;PMS5003;35601;55.902;13.606;2023-09-12T00:23:06;41;37;
49708;PMS5003;35601;55.902;13.606;2023-09-12T00:25:32;46;42;
49708;PMS5003;35601;55.902;13.606;2023-09-12T00:27:57;48;42;
49708;PMS5003;35601;55.902;13.606;2023-09-12T00:30:22;49;44;
49708;PMS5003;35601;55.902;13.606;2023-09-12T00:32:48;43;40;
49708;PMS5003;35601;55.902;13.606;2023-09-12T00:35:14;62;50;
49708;PMS5003;35601;55.902;13.606;2023-09-12T00:37:40;64;52;
49708;PMS5003;35601;55.902;13.606;2023-09-12T00:40:06;54;46;
49708;PMS5003;35601;55.902;13.606;2023-09-12T00:42:31;55;49;
49708;PMS5003;35601;55.902;13.606;2023-09-12T00:44:57;56;48;
49708;PMS5003;35601;55.902;13.606;2023-09-12T00:47:22;53;50;
49708;PMS5003;35601;55.902;13.606;2023-09-12T00:49:47;48;44;
49708;PMS5003;35601;55.902;13.606;2023-09-12T00:52:12;57;49;
49708;PMS5003;35601;55.902;13.606;2023-09-12T00:54:38;57;51;
49708;PMS5003;35601;55.902;13.606;2023-09-12T00:57:03;44;40;
49708;PMS5003;35601;55.902;13.606;2023-09-12T00:59:28;57;48;
49708;PMS5003;35601;55.902;13.606;2023-09-12T01:01:53;48;42;
49708;PMS5003;35601;55.902;13.606;2023-09-12T01:04:19;53;50;
49708;PMS5003;35601;55.902;13.606;2023-09-12T01:06:44;56;45;
49708;PMS5003;35601;55.902;13.606;2023-09-12T01:09:10;46;42;
49708;PMS5003;35601;55.902;13.606;2023-09-12T01:11:35;56;44;
49708;PMS5003;35601;55.902;13.606;2023-09-12T01:14:01;51;47;
49708;PMS5003;35601;55.902;13.606;2023-09-12T01:16:26;58;46;
49708;PMS5003;35601;55.902;13.606;2023-09-12T01:18:52;53;46;
49708;PMS5003;35601;55.902;13.606;2023-09-12T01:23:46;49;40;
49708;PMS5003;35601;55.902;13.606;2023-09-12T01:26:16;52;43;
49708;PMS5003;35601;55.902;13.606;2023-09-12T01:28:34;58;46;
49708;PMS5003;35601;55.902;13.606;2023-09-12T01:31:00;51;43;
49708;PMS5003;35601;55.902;13.606;2023-09-12T01:33:26;57;49;
49708;PMS5003;35601;55.902;13.606;2023-09-12T01:35:51;41;36;
49708;PMS5003;35601;55.902;13.606;2023-09-12T01:38:17;41;36;
49708;PMS5003;35601;55.902;13.606;2023-09-12T01:40:44;41;39;
49708;PMS5003;35601;55.902;13.606;2023-09-12T01:43:08;40;34;
49708;PMS5003;35601;55.902;13.606;2023-09-12T01:45:33;46;39;
49708;PMS5003;35601;55.902;13.606;2023-09-12T01:47:59;42;39;
49708;PMS5003;35601;55.902;13.606;2023-09-12T01:50:24;38;35;
49708;PMS5003;35601;55.902;13.606;2023-09-12T01:52:49;32;30;
49708;PMS5003;35601;55.902;13.606;2023-09-12T01:55:15;45;37;
49708;PMS5003;35601;55.902;13.606;2023-09-12T01:57:40;38;32;
49708;PMS5003;35601;55.902;13.606;2023-09-12T02:00:07;47;42;
49708;PMS5003;35601;55.902;13.606;2023-09-12T02:02:32;44;36;
49708;PMS5003;35601;55.902;13.606;2023-09-12T02:04:59;40;37;
49708;PMS5003;35601;55.902;13.606;2023-09-12T02:07:23;40;35;
49708;PMS5003;35601;55.902;13.606;2023-09-12T02:09:48;48;41;
49708;PMS5003;35601;55.902;13.606;2023-09-12T02:12:14;42;38;
49708;PMS5003;35601;55.902;13.606;2023-09-12T02:14:39;43;37;
49708;PMS5003;35601;55.902;13.606;2023-09-12T02:17:05;33;30;
49708;PMS5003;35601;55.902;13.606;2023-09-12T02:19:31;37;36;
49708;PMS5003;35601;55.902;13.606;2023-09-12T02:21:56;38;30;
49708;PMS5003;35601;55.902;13.606;2023-09-12T02:24:22;36;31;
49708;PMS5003;35601;55.902;13.606;2023-09-12T02:26:47;40;37;
49708;PMS5003;35601;55.902;13.606;2023-09-12T02:29:13;35;29;
49708;PMS5003;35601;55.902;13.606;2023-09-12T02:31:39;33;31;
49708;PMS5003;35601;55.902;13.606;2023-09-12T02:34:04;34;32;
49708;PMS5003;35601;55.902;13.606;2023-09-12T02:36:29;36;32;
49708;PMS5003;35601;55.902;13.606;2023-09-12T02:38:55;41;39;
49708;PMS5003;35601;55.902;13.606;2023-09-12T02:41:20;35;31;
49708;PMS5003;35601;55.902;13.606;2023-09-12T02:43:46;40;35;
49708;PMS5003;35601;55.902;13.606;2023-09-12T02:46:11;31;29;
49708;PMS5003;35601;55.902;13.606;2023-09-12T02:48:37;34;30;
49708;PMS5003;35601;55.902;13.606;2023-09-12T02:51:02;31;29;
49708;PMS5003;35601;55.902;13.606;2023-09-12T02:53:28;31;28;
49708;PMS5003;35601;55.902;13.606;2023-09-12T02:55:53;35;33;
49708;PMS5003;35601;55.902;13.606;2023-09-12T02:58:19;30;29;
49708;PMS5003;35601;55.902;13.606;2023-09-12T03:00:45;31;30;
49708;PMS5003;35601;55.902;13.606;2023-09-12T03:03:10;30;27;
49708;PMS5003;35601;55.902;13.606;2023-09-12T03:05:35;35;32;
49708;PMS5003;35601;55.902;13.606;2023-09-12T03:08:01;31;29;
49708;PMS5003;35601;55.902;13.606;2023-09-12T03:10:26;30;25;
49708;PMS5003;35601;55.902;13.606;2023-09-12T03:12:52;31;28;
49708;PMS5003;35601;55.902;13.606;2023-09-12T03:15:18;31;29;
49708;PMS5003;35601;55.902;13.606;2023-09-12T03:17:44;26;26;
49708;PMS5003;35601;55.902;13.606;2023-09-12T03:20:09;33;33;
49708;PMS5003;35601;55.902;13.606;2023-09-12T03:22:34;35;32;
49708;PMS5003;35601;55.902;13.606;2023-09-12T03:25:00;39;36;
49708;PMS5003;35601;55.902;13.606;2023-09-12T03:27:26;41;38;
49708;PMS5003;35601;55.902;13.606;2023-09-12T03:29:51;37;33;
49708;PMS5003;35601;55.902;13.606;2023-09-12T03:32:16;33;30;
49708;PMS5003;35601;55.902;13.606;2023-09-12T03:34:42;40;37;
49708;PMS5003;35601;55.902;13.606;2023-09-12T03:37:08;35;35;
49708;PMS5003;35601;55.902;13.606;2023-09-12T03:39:33;25;24;
49708;PMS5003;35601;55.902;13.606;2023-09-12T03:41:58;33;32;
49708;PMS5003;35601;55.902;13.606;2023-09-12T03:44:24;37;34;
49708;PMS5003;35601;55.902;13.606;2023-09-12T03:46:49;40;34;
49708;PMS5003;35601;55.902;13.606;2023-09-12T03:49:15;32;28;
49708;PMS5003;35601;55.902;13.606;2023-09-12T03:51:41;37;34;
49708;PMS5003;35601;55.902;13.606;2023-09-12T03:54:07;38;35;
49708;PMS5003;35601;55.902;13.606;2023-09-12T03:56:32;30;29;
49708;PMS5003;35601;55.902;13.606;2023-09-12T03:58:57;32;30;
49708;PMS5003;35601;55.902;13.606;2023-09-12T04:01:23;38;34;
49708;PMS5003;35601;55.902;13.606;2023-09-12T04:03:48;38;34;
49708;PMS5003;35601;55.902;13.606;2023-09-12T04:06:14;35;33;
49708;PMS5003;35601;55.902;13.606;2023-09-12T04:08:40;29;27;
49708;PMS5003;35601;55.902;13.606;2023-09-12T04:11:05;42;38;
49708;PMS5003;35601;55.902;13.606;2023-09-12T04:13:30;40;36;
49708;PMS5003;35601;55.902;13.606;2023-09-12T04:15:55;28;28;
49708;PMS5003;35601;55.902;13.606;2023-09-12T04:18:21;28;28;
49708;PMS5003;35601;55.902;13.606;2023-09-12T04:20:47;34;32;
49708;PMS5003;35601;55.902;13.606;2023-09-12T04:23:12;30;29;
49708;PMS5003;35601;55.902;13.606;2023-09-12T04:25:37;34;31;
49708;PMS5003;35601;55.902;13.606;2023-09-12T04:28:03;29;26;
49708;PMS5003;35601;55.902;13.606;2023-09-12T04:30:28;42;34;
49708;PMS5003;35601;55.902;13.606;2023-09-12T04:32:53;32;29;
49708;PMS5003;35601;55.902;13.606;2023-09-12T04:35:19;33;29;
49708;PMS5003;35601;55.902;13.606;2023-09-12T04:37:44;24;23;
49708;PMS5003;35601;55.902;13.606;2023-09-12T04:40:10;26;25;
49708;PMS5003;35601;55.902;13.606;2023-09-12T04:42:35;36;32;
49708;PMS5003;35601;55.902;13.606;2023-09-12T04:45:00;29;27;
49708;PMS5003;35601;55.902;13.606;2023-09-12T04:47:26;33;33;
49708;PMS5003;35601;55.902;13.606;2023-09-12T04:49:51;40;38;
49708;PMS5003;35601;55.902;13.606;2023-09-12T04:52:17;35;33;
49708;PMS5003;35601;55.902;13.606;2023-09-12T04:54:42;37;34;
49708;PMS5003;35601;55.902;13.606;2023-09-12T04:57:08;38;33;
49708;PMS5003;35601;55.902;13.606;2023-09-12T04:59:33;35;33;
49708;PMS5003;35601;55.902;13.606;2023-09-12T05:01:59;37;36;
49708;PMS5003;35601;55.902;13.606;2023-09-12T05:04:25;38;34;
49708;PMS5003;35601;55.902;13.606;2023-09-12T05:06:50;37;34;
49708;PMS5003;35601;55.902;13.606;2023-09-12T05:09:15;49;46;
49708;PMS5003;35601;55.902;13.606;2023-09-12T05:11:40;47;40;
49708;PMS5003;35601;55.902;13.606;2023-09-12T05:14:06;41;39;
49708;PMS5003;35601;55.902;13.606;2023-09-12T05:16:31;39;39;
49708;PMS5003;35601;55.902;13.606;2023-09-12T05:18:57;40;35;
49708;PMS5003;35601;55.902;13.606;2023-09-12T05:21:23;45;40;
49708;PMS5003;35601;55.902;13.606;2023-09-12T05:23:48;43;41;
49708;PMS5003;35601;55.902;13.606;2023-09-12T05:26:13;50;46;
49708;PMS5003;35601;55.902;13.606;2023-09-12T05:28:39;47;42;
49708;PMS5003;35601;55.902;13.606;2023-09-12T05:31:04;62;58;
49708;PMS5003;35601;55.902;13.606;2023-09-12T05:33:30;59;52;
49708;PMS5003;35601;55.902;13.606;2023-09-12T05:35:55;67;58;
49708;PMS5003;35601;55.902;13.606;2023-09-12T05:38:21;62;59;
49708;PMS5003;35601;55.902;13.606;2023-09-12T05:40:46;57;55;
49708;PMS5003;35601;55.902;13.606;2023-09-12T05:43:11;53;51;
49708;PMS5003;35601;55.902;13.606;2023-09-12T05:45:37;67;61;
49708;PMS5003;35601;55.902;13.606;2023-09-12T05:48:03;61;60;
49708;PMS5003;35601;55.902;13.606;2023-09-12T05:50:28;65;58;
49708;PMS5003;35601;55.902;13.606;2023-09-12T05:52:53;67;64;
49708;PMS5003;35601;55.902;13.606;2023-09-12T05:55:19;58;56;
49708;PMS5003;35601;55.902;13.606;2023-09-12T05:57:44;59;56;
49708;PMS5003;35601;55.902;13.606;2023-09-12T06:00:10;61;57;
49708;PMS5003;35601;55.902;13.606;2023-09-12T06:02:35;55;54;
49708;PMS5003;35601;55.902;13.606;2023-09-12T06:05:00;50;43;
49708;PMS5003;35601;55.902;13.606;2023-09-12T06:07:25;55;52;
49708;PMS5003;35601;55.902;13.606;2023-09-12T06:09:51;48;46;
49708;PMS5003;35601;55.902;13.606;2023-09-12T06:12:16;61;58;
49708;PMS5003;35601;55.902;13.606;2023-09-12T06:14:42;48;47;
49708;PMS5003;35601;55.902;13.606;2023-09-12T06:17:07;50;48;
49708;PMS5003;35601;55.902;13.606;2023-09-12T06:19:33;55;54;
49708;PMS5003;35601;55.902;13.606;2023-09-12T06:21:58;53;52;
49708;PMS5003;35601;55.902;13.606;2023-09-12T06:24:25;53;49;
49708;PMS5003;35601;55.902;13.606;2023-09-12T06:26:50;52;50;
49708;PMS5003;35601;55.902;13.606;2023-09-12T06:29:15;51;50;
49708;PMS5003;35601;55.902;13.606;2023-09-12T06:31:40;53;48;
49708;PMS5003;35601;55.902;13.606;2023-09-12T06:34:06;51;45;
49708;PMS5003;35601;55.902;13.606;2023-09-12T06:36:31;48;42;
49708;PMS5003;35601;55.902;13.606;2023-09-12T06:38:56;61;54;
49708;PMS5003;35601;55.902;13.606;2023-09-12T06:41:22;51;47;
49708;PMS5003;35601;55.902;13.606;2023-09-12T06:43:47;54;51;
49708;PMS5003;35601;55.902;13.606;2023-09-12T06:46:13;48;43;
49708;PMS5003;35601;55.902;13.606;2023-09-12T06:48:39;55;49;
49708;PMS5003;35601;55.902;13.606;2023-09-12T06:51:05;52;51;
49708;PMS5003;35601;55.902;13.606;2023-09-12T06:53:30;58;51;
49708;PMS5003;35601;55.902;13.606;2023-09-12T06:55:55;61;54;
49708;PMS5003;35601;55.902;13.606;2023-09-12T06:58:21;58;56;
49708;PMS5003;35601;55.902;13.606;2023-09-12T07:00:46;58;56;
49708;PMS5003;35601;55.902;13.606;2023-09-12T07:03:12;45;43;
49708;PMS5003;35601;55.902;13.606;2023-09-12T07:05:37;49;45;
49708;PMS5003;35601;55.902;13.606;2023-09-12T07:08:03;46;45;
49708;PMS5003;35601;55.902;13.606;2023-09-12T07:10:28;50;43;
49708;PMS5003;35601;55.902;13.606;2023-09-12T07:12:53;44;42;
49708;PMS5003;35601;55.902;13.606;2023-09-12T07:15:19;45;44;
49708;PMS5003;35601;55.902;13.606;2023-09-12T07:17:44;67;55;
49708;PMS5003;35601;55.902;13.606;2023-09-12T07:20:10;49;48;
49708;PMS5003;35601;55.902;13.606;2023-09-12T07:22:35;65;57;
49708;PMS5003;35601;55.902;13.606;2023-09-12T07:25:00;49;45;
49708;PMS5003;35601;55.902;13.606;2023-09-12T07:27:26;47;47;
49708;PMS5003;35601;55.902;13.606;2023-09-12T07:29:51;60;56;
49708;PMS5003;35601;55.902;13.606;2023-09-12T07:32:16;43;43;
49708;PMS5003;35601;55.902;13.606;2023-09-12T07:34:41;58;55;
49708;PMS5003;35601;55.902;13.606;2023-09-12T07:37:06;58;55;
49708;PMS5003;35601;55.902;13.606;2023-09-12T07:39:32;53;47;
49708;PMS5003;35601;55.902;13.606;2023-09-12T07:41:57;60;58;
49708;PMS5003;35601;55.902;13.606;2023-09-12T07:44:23;62;57;
49708;PMS5003;35601;55.902;13.606;2023-09-12T07:46:48;74;59;
49708;PMS5003;35601;55.902;13.606;2023-09-12T07:49:14;53;51;
49708;PMS5003;35601;55.902;13.606;2023-09-12T07:51:40;59;50;
49708;PMS5003;35601;55.902;13.606;2023-09-12T07:54:05;54;47;
49708;PMS5003;35601;55.902;13.606;2023-09-12T07:56:30;59;48;
49708;PMS5003;35601;55.902;13.606;2023-09-12T07:58:57;51;46;
49708;PMS5003;35601;55.902;13.606;2023-09-12T08:01:21;48;46;
49708;PMS5003;35601;55.902;13.606;2023-09-12T08:03:46;49;39;
49708;PMS5003;35601;55.902;13.606;2023-09-12T08:06:11;53;44;
49708;PMS5003;35601;55.902;13.606;2023-09-12T08:08:37;47;40;
49708;PMS5003;35601;55.902;13.606;2023-09-12T08:11:02;48;41;
49708;PMS5003;35601;55.902;13.606;2023-09-12T08:13:28;45;40;
49708;PMS5003;35601;55.902;13.606;2023-09-12T08:15:52;49;44;
49708;PMS5003;35601;55.902;13.606;2023-09-12T08:18:18;45;37;
49708;PMS5003;35601;55.902;13.606;2023-09-12T08:20:44;45;40;
49708;PMS5003;35601;55.902;13.606;2023-09-12T08:23:09;42;38;
49708;PMS5003;35601;55.902;13.606;2023-09-12T08:25:34;39;37;
49708;PMS5003;35601;55.902;13.606;2023-09-12T08:28:00;40;36;
49708;PMS5003;35601;55.902;13.606;2023-09-12T08:30:26;40;33;
49708;PMS5003;35601;55.902;13.606;2023-09-12T08:32:51;45;41;
49708;PMS5003;35601;55.902;13.606;2023-09-12T08:35:17;43;38;
49708;PMS5003;35601;55.902;13.606;2023-09-12T08:37:42;44;41;
49708;PMS5003;35601;55.902;13.606;2023-09-12T08:40:09;41;37;
49708;PMS5003;35601;55.902;13.606;2023-09-12T08:42:33;35;33;
49708;PMS5003;35601;55.902;13.606;2023-09-12T08:44:58;39;36;
49708;PMS5003;35601;55.902;13.606;2023-09-12T08:47:23;41;38;
49708;PMS5003;35601;55.902;13.606;2023-09-12T08:49:49;42;37;
49708;PMS5003;35601;55.902;13.606;2023-09-12T08:52:14;37;33;
49708;PMS5003;35601;55.902;13.606;2023-09-12T08:54:40;33;33;
49708;PMS5003;35601;55.902;13.606;2023-09-12T08:57:05;38;35;
49708;PMS5003;35601;55.902;13.606;2023-09-12T08:59:31;38;37;
49708;PMS5003;35601;55.902;13.606;2023-09-12T09:01:56;34;32;
49708;PMS5003;35601;55.902;13.606;2023-09-12T09:04:21;32;32;
49708;PMS5003;35601;55.902;13.606;2023-09-12T09:06:46;29;28;
49708;PMS5003;35601;55.902;13.606;2023-09-12T09:09:12;41;40;
49708;PMS5003;35601;55.902;13.606;2023-09-12T09:11:37;34;27;
49708;PMS5003;35601;55.902;13.606;2023-09-12T09:14:03;35;33;
49708;PMS5003;35601;55.902;13.606;2023-09-12T09:16:29;30;30;
49708;PMS5003;35601;55.902;13.606;2023-09-12T09:18:55;36;28;
49708;PMS5003;35601;55.902;13.606;2023-09-12T09:21:21;27;26;
49708;PMS5003;35601;55.902;13.606;2023-09-12T09:23:45;41;34;
49708;PMS5003;35601;55.902;13.606;2023-09-12T09:26:11;38;31;
49708;PMS5003;35601;55.902;13.606;2023-09-12T09:28:36;35;33;
49708;PMS5003;35601;55.902;13.606;2023-09-12T09:31:02;34;33;
49708;PMS5003;35601;55.902;13.606;2023-09-12T09:33:27;34;32;
49708;PMS5003;35601;55.902;13.606;2023-09-12T09:35:54;30;28;
49708;PMS5003;35601;55.902;13.606;2023-09-12T09:38:18;32;29;
49708;PMS5003;35601;55.902;13.606;2023-09-12T09:40:43;36;32;
49708;PMS5003;35601;55.902;13.606;2023-09-12T09:43:09;32;30;
49708;PMS5003;35601;55.902;13.606;2023-09-12T09:45:42;32;30;
49708;PMS5003;35601;55.902;13.606;2023-09-12T09:48:04;37;33;
49708;PMS5003;35601;55.902;13.606;2023-09-12T09:50:25;30;25;
49708;PMS5003;35601;55.902;13.606;2023-09-12T09:52:53;24;24;
49708;PMS5003;35601;55.902;13.606;2023-09-12T09:55:16;24;22;
49708;PMS5003;35601;55.902;13.606;2023-09-12T09:57:41;28;24;
49708;PMS5003;35601;55.902;13.606;2023-09-12T10:00:07;22;21;
49708;PMS5003;35601;55.902;13.606;2023-09-12T10:02:32;29;25;
49708;PMS5003;35601;55.902;13.606;2023-09-12T10:04:57;29;28;
49708;PMS5003;35601;55.902;13.606;2023-09-12T10:07:22;35;27;
49708;PMS5003;35601;55.902;13.606;2023-09-12T10:09:47;28;27;
49708;PMS5003;35601;55.902;13.606;2023-09-12T10:12:12;36;31;
49708;PMS5003;35601;55.902;13.606;2023-09-12T10:14:38;32;31;
49708;PMS5003;35601;55.902;13.606;2023-09-12T10:17:03;29;26;
49708;PMS5003;35601;55.902;13.606;2023-09-12T10:19:31;29;28;
49708;PMS5003;35601;55.902;13.606;2023-09-12T10:21:55;26;26;
49708;PMS5003;35601;55.902;13.606;2023-09-12T10:24:19;27;25;
49708;PMS5003;35601;55.902;13.606;2023-09-12T10:26:45;28;24;
49708;PMS5003;35601;55.902;13.606;2023-09-12T10:29:10;33;27;
49708;PMS5003;35601;55.902;13.606;2023-09-12T10:31:35;31;31;
49708;PMS5003;35601;55.902;13.606;2023-09-12T10:34:02;30;26;
49708;PMS5003;35601;55.902;13.606;2023-09-12T10:36:27;31;30;
49708;PMS5003;35601;55.902;13.606;2023-09-12T10:38:52;33;30;
49708;PMS5003;35601;55.902;13.606;2023-09-12T10:41:17;24;22;
49708;PMS5003;35601;55.902;13.606;2023-09-12T10:43:44;35;32;
49708;PMS5003;35601;55.902;13.606;2023-09-12T10:46:08;36;34;
49708;PMS5003;35601;55.902;13.606;2023-09-12T10:48:34;30;24;
49708;PMS5003;35601;55.902;13.606;2023-09-12T10:51:00;24;24;
49708;PMS5003;35601;55.902;13.606;2023-09-12T10:53:26;33;32;
49708;PMS5003;35601;55.902;13.606;2023-09-12T10:58:16;40;39;
49708;PMS5003;35601;55.902;13.606;2023-09-12T11:05:36;25;25;
49708;PMS5003;35601;55.902;13.606;2023-09-12T11:07:58;31;31;
49708;PMS5003;35601;55.902;13.606;2023-09-12T11:10:23;29;29;
49708;PMS5003;35601;55.902;13.606;2023-09-12T11:12:49;35;34;
49708;PMS5003;35601;55.902;13.606;2023-09-12T11:15:14;30;30;
49708;PMS5003;35601;55.902;13.606;2023-09-12T11:17:39;38;36;
49708;PMS5003;35601;55.902;13.606;2023-09-12T11:20:06;44;40;
49708;PMS5003;35601;55.902;13.606;2023-09-12T11:22:31;36;32;
49708;PMS5003;35601;55.902;13.606;2023-09-12T11:24:56;34;33;
49708;PMS5003;35601;55.902;13.606;2023-09-12T11:27:22;30;27;
49708;PMS5003;35601;55.902;13.606;2023-09-12T11:29:47;28;28;
49708;PMS5003;35601;55.902;13.606;2023-09-12T11:32:14;31;31;
49708;PMS5003;35601;55.902;13.606;2023-09-12T11:34:38;34;31;
49708;PMS5003;35601;55.902;13.606;2023-09-12T11:37:03;33;31;
49708;PMS5003;35601;55.902;13.606;2023-09-12T11:39:28;44;35;
49708;PMS5003;35601;55.902;13.606;2023-09-12T11:41:53;38;35;
49708;PMS5003;35601;55.902;13.606;2023-09-12T11:44:19;27;25;
49708;PMS5003;35601;55.902;13.606;2023-09-12T11:46:46;42;37;
49708;PMS5003;35601;55.902;13.606;2023-09-12T11:49:10;29;27;
49708;PMS5003;35601;55.902;13.606;2023-09-12T11:51:36;42;35;
49708;PMS5003;35601;55.902;13.606;2023-09-12T11:54:01;33;33;
49708;PMS5003;35601;55.902;13.606;2023-09-12T11:56:27;31;30;
49708;PMS5003;35601;55.902;13.606;2023-09-12T11:58:52;33;30;
49708;PMS5003;35601;55.902;13.606;2023-09-12T12:01:18;38;32;
49708;PMS5003;35601;55.902;13.606;2023-09-12T12:03:42;42;38;
49708;PMS5003;35601;55.902;13.606;2023-09-12T12:06:08;32;31;
49708;PMS5003;35601;55.902;13.606;2023-09-12T12:08:34;28;27;
49708;PMS5003;35601;55.902;13.606;2023-09-12T12:10:59;34;32;
49708;PMS5003;35601;55.902;13.606;2023-09-12T12:13:24;31;30;
49708;PMS5003;35601;55.902;13.606;2023-09-12T12:15:50;31;29;
49708;PMS5003;35601;55.902;13.606;2023-09-12T12:18:16;41;36;
49708;PMS5003;35601;55.902;13.606;2023-09-12T12:20:41;28;26;
49708;PMS5003;35601;55.902;13.606;2023-09-12T12:23:07;36;34;
49708;PMS5003;35601;55.902;13.606;2023-09-12T12:25:33;38;33;
49708;PMS5003;35601;55.902;13.606;2023-09-12T12:27:58;36;34;
49708;PMS5003;35601;55.902;13.606;2023-09-12T12:30:23;25;25;
49708;PMS5003;35601;55.902;13.606;2023-09-12T12:32:49;32;32;
49708;PMS5003;35601;55.902;13.606;2023-09-12T12:35:17;36;34;
49708;PMS5003;35601;55.902;13.606;2023-09-12T12:37:40;31;26;
49708;PMS5003;35601;55.902;13.606;2023-09-12T12:40:06;32;28;
49708;PMS5003;35601;55.902;13.606;2023-09-12T12:42:33;39;35;
49708;PMS5003;35601;55.902;13.606;2023-09-12T12:44:56;28;27;
49708;PMS5003;35601;55.902;13.606;2023-09-12T12:47:21;29;24;
49708;PMS5003;35601;55.902;13.606;2023-09-12T12:49:50;37;32;
49708;PMS5003;35601;55.902;13.606;2023-09-12T12:52:12;40;37;
49708;PMS5003;35601;55.902;13.606;2023-09-12T12:54:37;34;30;
49708;PMS5003;35601;55.902;13.606;2023-09-12T12:57:04;35;30;
49708;PMS5003;35601;55.902;13.606;2023-09-12T12:59:29;26;25;
49708;PMS5003;35601;55.902;13.606;2023-09-12T13:01:54;23;21;
49708;PMS5003;35601;55.902;13.606;2023-09-12T13:04:19;23;23;
49708;PMS5003;35601;55.902;13.606;2023-09-12T13:06:45;32;29;
49708;PMS5003;35601;55.902;13.606;2023-09-12T13:09:10;27;24;
49708;PMS5003;35601;55.902;13.606;2023-09-12T13:11:36;26;25;
49708;PMS5003;35601;55.902;13.606;2023-09-12T13:14:01;26;24;
49708;PMS5003;35601;55.902;13.606;2023-09-12T13:16:27;31;31;
49708;PMS5003;35601;55.902;13.606;2023-09-12T13:18:52;24;21;
49708;PMS5003;35601;55.902;13.606;2023-09-12T13:21:18;27;24;
49708;PMS5003;35601;55.902;13.606;2023-09-12T13:23:44;22;22;
49708;PMS5003;35601;55.902;13.606;2023-09-12T13:26:09;26;26;
49708;PMS5003;35601;55.902;13.606;2023-09-12T13:28:34;29;25;
49708;PMS5003;35601;55.902;13.606;2023-09-12T13:31:00;35;27;
49708;PMS5003;35601;55.902;13.606;2023-09-12T13:33:25;27;25;
49708;PMS5003;35601;55.902;13.606;2023-09-12T13:35:50;22;20;
49708;PMS5003;35601;55.902;13.606;2023-09-12T13:38:16;25;23;
49708;PMS5003;35601;55.902;13.606;2023-09-12T13:40:42;26;23;
49708;PMS5003;35601;55.902;13.606;2023-09-12T13:43:07;22;22;
49708;PMS5003;35601;55.902;13.606;2023-09-12T13:45:32;28;28;
49708;PMS5003;35601;55.902;13.606;2023-09-12T13:47:58;26;24;
49708;PMS5003;35601;55.902;13.606;2023-09-12T13:50:23;28;27;
49708;PMS5003;35601;55.902;13.606;2023-09-12T13:52:49;21;19;
49708;PMS5003;35601;55.902;13.606;2023-09-12T13:55:14;28;27;
49708;PMS5003;35601;55.902;13.606;2023-09-12T13:57:40;25;25;
49708;PMS5003;35601;55.902;13.606;2023-09-12T14:00:06;25;24;
49708;PMS5003;35601;55.902;13.606;2023-09-12T14:02:31;29;26;
49708;PMS5003;35601;55.902;13.606;2023-09-12T14:04:56;35;32;
49708;PMS5003;35601;55.902;13.606;2023-09-12T14:07:22;31;29;
49708;PMS5003;35601;55.902;13.606;2023-09-12T14:09:47;34;30;
49708;PMS5003;35601;55.902;13.606;2023-09-12T14:12:13;31;27;
49708;PMS5003;35601;55.902;13.606;2023-09-12T14:14:38;34;29;
49708;PMS5003;35601;55.902;13.606;2023-09-12T14:17:04;33;28;
49708;PMS5003;35601;55.902;13.606;2023-09-12T14:19:29;38;36;
49708;PMS5003;35601;55.902;13.606;2023-09-12T14:21:55;33;29;
49708;PMS5003;35601;55.902;13.606;2023-09-12T14:24:21;33;29;
49708;PMS5003;35601;55.902;13.606;2023-09-12T14:26:46;32;30;
49708;PMS5003;35601;55.902;13.606;2023-09-12T14:29:12;38;34;
49708;PMS5003;35601;55.902;13.606;2023-09-12T14:31:37;38;35;
49708;PMS5003;35601;55.902;13.606;2023-09-12T14:34:02;29;27;
49708;PMS5003;35601;55.902;13.606;2023-09-12T14:36:27;32;30;
49708;PMS5003;35601;55.902;13.606;2023-09-12T14:38:52;33;30;
49708;PMS5003;35601;55.902;13.606;2023-09-12T14:41:17;31;31;
49708;PMS5003;35601;55.902;13.606;2023-09-12T14:43:43;27;27;
49708;PMS5003;35601;55.902;13.606;2023-09-12T14:46:08;29;29;
49708;PMS5003;35601;55.902;13.606;2023-09-12T14:48:34;29;29;
49708;PMS5003;35601;55.902;13.606;2023-09-12T14:50:59;31;29;
49708;PMS5003;35601;55.902;13.606;2023-09-12T14:53:24;37;33;
49708;PMS5003;35601;55.902;13.606;2023-09-12T14:55:49;24;23;
49708;PMS5003;35601;55.902;13.606;2023-09-12T14:58:15;28;27;
49708;PMS5003;35601;55.902;13.606;2023-09-12T15:00:40;25;25;
49708;PMS5003;35601;55.902;13.606;2023-09-12T15:03:05;24;23;
49708;PMS5003;35601;55.902;13.606;2023-09-12T15:05:30;25;24;
49708;PMS5003;35601;55.902;13.606;2023-09-12T15:07:55;28;24;
49708;PMS5003;35601;55.902;13.606;2023-09-12T15:10:21;20;20;
49708;PMS5003;35601;55.902;13.606;2023-09-12T15:12:46;20;18;
49708;PMS5003;35601;55.902;13.606;2023-09-12T15:15:11;26;24;
49708;PMS5003;35601;55.902;13.606;2023-09-12T15:17:37;26;24;
49708;PMS5003;35601;55.902;13.606;2023-09-12T15:20:02;23;22;
49708;PMS5003;35601;55.902;13.606;2023-09-12T15:22:27;21;21;
49708;PMS5003;35601;55.902;13.606;2023-09-12T15:24:53;23;23;
49708;PMS5003;35601;55.902;13.606;2023-09-12T15:27:18;19;18;
49708;PMS5003;35601;55.902;13.606;2023-09-12T15:29:44;27;23;
49708;PMS5003;35601;55.902;13.606;2023-09-12T15:32:09;20;19;
49708;PMS5003;35601;55.902;13.606;2023-09-12T15:34:34;23;23;
49708;PMS5003;35601;55.902;13.606;2023-09-12T15:37:05;26;26;
49708;PMS5003;35601;55.902;13.606;2023-09-12T15:39:24;23;23;
49708;PMS5003;35601;55.902;13.606;2023-09-12T15:41:50;25;25;
49708;PMS5003;35601;55.902;13.606;2023-09-12T15:44:15;26;24;
49708;PMS5003;35601;55.902;13.606;2023-09-12T15:46:41;22;21;
49708;PMS5003;35601;55.902;13.606;2023-09-12T15:49:06;20;19;
49708;PMS5003;35601;55.902;13.606;2023-09-12T15:51:31;22;20;
49708;PMS5003;35601;55.902;13.606;2023-09-12T15:53:57;22;21;
49708;PMS5003;35601;55.902;13.606;2023-09-12T15:56:22;24;24;
49708;PMS5003;35601;55.902;13.606;2023-09-12T15:58:47;27;27;